Terminal Aerodrome Forecast
Issued by NWS Sioux Falls, SD

Home | Current Version | Previous Version | Graphics & Text | Print | Product List | Glossary On
Versions: 1 2 3 4 5 6 7 8 9 10 11 12 13 14 15 16 17 18 19 20 21
000
FTUS43 KFSD 241730
TAFFSD
TAF
KFSD 241730Z 2418/2518 27009KT P6SM OVC150
     FM242300 28008KT P6SM -RA OVC040
     FM250300 32012G19KT P6SM -RA OVC020
     FM250500 34016G26KT P6SM -RA OVC012
     FM250700 35018G28KT 3SM -SN OVC012
     FM251300 36015KT 6SM -SN BKN025=

USA.gov is the U.S. government's official web portal to all federal, state and local government web resources and services.